sensor_id;sensor_type;location;lat;lon;timestamp;temperature;humidity
7296;DHT22;40758;54.038;11.684;2022-10-16T00:02:16;16.20;99.90
7296;DHT22;40758;54.038;11.684;2022-10-16T00:04:50;16.20;99.90
7296;DHT22;40758;54.038;11.684;2022-10-16T00:07:24;16.20;99.90
7296;DHT22;40758;54.038;11.684;2022-10-16T00:09:55;16.20;99.90
7296;DHT22;40758;54.038;11.684;2022-10-16T00:12:24;16.10;99.90
7296;DHT22;40758;54.038;11.684;2022-10-16T00:14:56;16.10;99.90
7296;DHT22;40758;54.038;11.684;2022-10-16T00:17:25;16.00;99.90
7296;DHT22;40758;54.038;11.684;2022-10-16T00:19:55;16.00;99.90
7296;DHT22;40758;54.038;11.684;2022-10-16T00:22:26;16.00;99.90
7296;DHT22;40758;54.038;11.684;2022-10-16T00:24:58;15.90;99.90
7296;DHT22;40758;54.038;11.684;2022-10-16T00:27:27;15.90;99.90
7296;DHT22;40758;54.038;11.684;2022-10-16T00:29:58;15.80;99.90
7296;DHT22;40758;54.038;11.684;2022-10-16T00:32:29;15.80;99.90
7296;DHT22;40758;54.038;11.684;2022-10-16T00:35:01;15.80;99.90
7296;DHT22;40758;54.038;11.684;2022-10-16T00:37:31;15.70;99.90
7296;DHT22;40758;54.038;11.684;2022-10-16T00:40:00;15.60;99.90
7296;DHT22;40758;54.038;11.684;2022-10-16T00:42:29;15.60;99.90
7296;DHT22;40758;54.038;11.684;2022-10-16T00:45:15;15.50;99.90
7296;DHT22;40758;54.038;11.684;2022-10-16T00:47:47;15.40;99.90
7296;DHT22;40758;54.038;11.684;2022-10-16T00:50:27;15.40;99.90
7296;DHT22;40758;54.038;11.684;2022-10-16T00:53:03;15.30;99.90
7296;DHT22;40758;54.038;11.684;2022-10-16T00:55:32;15.20;99.90
7296;DHT22;40758;54.038;11.684;2022-10-16T00:58:14;15.20;99.90
7296;DHT22;40758;54.038;11.684;2022-10-16T01:00:45;15.20;99.90
7296;DHT22;40758;54.038;11.684;2022-10-16T01:03:25;15.20;99.90
7296;DHT22;40758;54.038;11.684;2022-10-16T01:06:16;15.10;99.90
7296;DHT22;40758;54.038;11.684;2022-10-16T01:09:06;15.10;99.90
7296;DHT22;40758;54.038;11.684;2022-10-16T01:11:48;15.10;99.90
7296;DHT22;40758;54.038;11.684;2022-10-16T01:14:37;15.00;99.90
7296;DHT22;40758;54.038;11.684;2022-10-16T01:17:17;14.90;99.90
7296;DHT22;40758;54.038;11.684;2022-10-16T01:20:03;14.80;99.90
7296;DHT22;40758;54.038;11.684;2022-10-16T01:22:45;14.80;99.90
7296;DHT22;40758;54.038;11.684;2022-10-16T01:25:35;14.80;99.90
7296;DHT22;40758;54.038;11.684;2022-10-16T01:28:27;14.70;99.90
7296;DHT22;40758;54.038;11.684;2022-10-16T01:31:05;14.70;99.90
7296;DHT22;40758;54.038;11.684;2022-10-16T01:33:41;14.80;99.90
7296;DHT22;40758;54.038;11.684;2022-10-16T01:36:17;14.80;99.90
7296;DHT22;40758;54.038;11.684;2022-10-16T01:38:51;14.80;99.90
7296;DHT22;40758;54.038;11.684;2022-10-16T01:41:28;14.80;99.90
7296;DHT22;40758;54.038;11.684;2022-10-16T01:44:05;14.80;99.90
7296;DHT22;40758;54.038;11.684;2022-10-16T01:46:42;14.80;99.90
7296;DHT22;40758;54.038;11.684;2022-10-16T01:49:17;14.80;99.90
7296;DHT22;40758;54.038;11.684;2022-10-16T01:51:58;14.80;99.90
7296;DHT22;40758;54.038;11.684;2022-10-16T01:54:36;14.80;99.90
7296;DHT22;40758;54.038;11.684;2022-10-16T01:57:10;14.80;99.90
7296;DHT22;40758;54.038;11.684;2022-10-16T01:59:45;14.70;99.90
7296;DHT22;40758;54.038;11.684;2022-10-16T02:02:20;14.60;99.90
7296;DHT22;40758;54.038;11.684;2022-10-16T02:04:54;14.60;99.90
7296;DHT22;40758;54.038;11.684;2022-10-16T02:07:28;14.60;99.90
7296;DHT22;40758;54.038;11.684;2022-10-16T02:09:59;14.60;99.90
7296;DHT22;40758;54.038;11.684;2022-10-16T02:12:32;14.50;99.90
7296;DHT22;40758;54.038;11.684;2022-10-16T02:15:08;14.50;99.90
7296;DHT22;40758;54.038;11.684;2022-10-16T02:17:38;14.40;99.90
7296;DHT22;40758;54.038;11.684;2022-10-16T02:20:07;14.40;99.90
7296;DHT22;40758;54.038;11.684;2022-10-16T02:22:43;14.30;99.90
7296;DHT22;40758;54.038;11.684;2022-10-16T02:25:18;14.20;99.90
7296;DHT22;40758;54.038;11.684;2022-10-16T02:27:55;14.20;99.90
7296;DHT22;40758;54.038;11.684;2022-10-16T02:30:36;14.20;99.90
7296;DHT22;40758;54.038;11.684;2022-10-16T02:33:15;14.20;99.90
7296;DHT22;40758;54.038;11.684;2022-10-16T02:35:47;14.20;99.90
7296;DHT22;40758;54.038;11.684;2022-10-16T02:38:25;14.10;99.90
7296;DHT22;40758;54.038;11.684;2022-10-16T02:40:59;14.10;99.90
7296;DHT22;40758;54.038;11.684;2022-10-16T02:43:28;14.10;99.90
7296;DHT22;40758;54.038;11.684;2022-10-16T02:46:00;14.10;99.90
7296;DHT22;40758;54.038;11.684;2022-10-16T02:48:30;14.00;99.90
7296;DHT22;40758;54.038;11.684;2022-10-16T02:51:03;14.10;99.90
7296;DHT22;40758;54.038;11.684;2022-10-16T02:53:32;14.10;99.90
7296;DHT22;40758;54.038;11.684;2022-10-16T02:56:04;14.00;99.90
7296;DHT22;40758;54.038;11.684;2022-10-16T02:58:34;14.00;99.90
7296;DHT22;40758;54.038;11.684;2022-10-16T03:01:05;14.00;99.90
7296;DHT22;40758;54.038;11.684;2022-10-16T03:03:34;14.00;99.90
7296;DHT22;40758;54.038;11.684;2022-10-16T03:06:03;14.00;99.90
7296;DHT22;40758;54.038;11.684;2022-10-16T03:08:33;14.10;99.90
7296;DHT22;40758;54.038;11.684;2022-10-16T03:11:02;14.10;99.90
7296;DHT22;40758;54.038;11.684;2022-10-16T03:13:37;14.10;99.90
7296;DHT22;40758;54.038;11.684;2022-10-16T03:16:08;14.10;99.90
7296;DHT22;40758;54.038;11.684;2022-10-16T03:18:39;14.20;99.90
7296;DHT22;40758;54.038;11.684;2022-10-16T03:21:08;14.20;99.90
7296;DHT22;40758;54.038;11.684;2022-10-16T03:23:37;14.10;99.90
7296;DHT22;40758;54.038;11.684;2022-10-16T03:26:06;14.20;99.90
7296;DHT22;40758;54.038;11.684;2022-10-16T03:28:37;14.20;99.90
7296;DHT22;40758;54.038;11.684;2022-10-16T03:31:08;14.20;99.90
7296;DHT22;40758;54.038;11.684;2022-10-16T03:33:40;14.20;99.90
7296;DHT22;40758;54.038;11.684;2022-10-16T03:36:09;14.30;99.90
7296;DHT22;40758;54.038;11.684;2022-10-16T03:38:38;14.30;99.90
7296;DHT22;40758;54.038;11.684;2022-10-16T03:41:08;14.30;99.90
7296;DHT22;40758;54.038;11.684;2022-10-16T03:43:40;14.20;99.90
7296;DHT22;40758;54.038;11.684;2022-10-16T03:46:14;14.20;99.90
7296;DHT22;40758;54.038;11.684;2022-10-16T03:48:43;14.20;99.90
7296;DHT22;40758;54.038;11.684;2022-10-16T03:51:13;14.20;99.90
7296;DHT22;40758;54.038;11.684;2022-10-16T03:53:46;14.10;99.90
7296;DHT22;40758;54.038;11.684;2022-10-16T03:56:15;14.10;99.90
7296;DHT22;40758;54.038;11.684;2022-10-16T03:58:44;14.00;99.90
7296;DHT22;40758;54.038;11.684;2022-10-16T04:01:15;14.00;99.90
7296;DHT22;40758;54.038;11.684;2022-10-16T04:03:44;13.90;99.90
7296;DHT22;40758;54.038;11.684;2022-10-16T04:06:13;13.90;99.90
7296;DHT22;40758;54.038;11.684;2022-10-16T04:08:43;13.80;99.90
7296;DHT22;40758;54.038;11.684;2022-10-16T04:11:12;13.80;99.90
7296;DHT22;40758;54.038;11.684;2022-10-16T04:13:41;13.80;99.90
7296;DHT22;40758;54.038;11.684;2022-10-16T04:16:10;13.90;99.90
7296;DHT22;40758;54.038;11.684;2022-10-16T04:18:41;13.90;99.90
7296;DHT22;40758;54.038;11.684;2022-10-16T04:21:10;13.80;99.90
7296;DHT22;40758;54.038;11.684;2022-10-16T04:23:42;13.80;99.90
7296;DHT22;40758;54.038;11.684;2022-10-16T04:26:15;13.80;99.90
7296;DHT22;40758;54.038;11.684;2022-10-16T04:28:44;13.80;99.90
7296;DHT22;40758;54.038;11.684;2022-10-16T04:31:16;13.70;99.90
7296;DHT22;40758;54.038;11.684;2022-10-16T04:33:47;13.70;99.90
7296;DHT22;40758;54.038;11.684;2022-10-16T04:36:16;13.60;99.90
7296;DHT22;40758;54.038;11.684;2022-10-16T04:38:45;13.50;99.90
7296;DHT22;40758;54.038;11.684;2022-10-16T04:41:14;13.50;99.90
7296;DHT22;40758;54.038;11.684;2022-10-16T04:43:43;13.50;99.90
7296;DHT22;40758;54.038;11.684;2022-10-16T04:46:13;13.40;99.90
7296;DHT22;40758;54.038;11.684;2022-10-16T04:48:42;13.40;99.90
7296;DHT22;40758;54.038;11.684;2022-10-16T04:51:12;13.40;99.90
7296;DHT22;40758;54.038;11.684;2022-10-16T04:53:42;13.30;99.90
7296;DHT22;40758;54.038;11.684;2022-10-16T04:56:11;13.20;99.90
7296;DHT22;40758;54.038;11.684;2022-10-16T04:58:43;13.20;99.90
7296;DHT22;40758;54.038;11.684;2022-10-16T05:01:11;13.20;99.90
7296;DHT22;40758;54.038;11.684;2022-10-16T05:03:42;13.10;99.90
7296;DHT22;40758;54.038;11.684;2022-10-16T05:06:13;13.10;99.90
7296;DHT22;40758;54.038;11.684;2022-10-16T05:08:44;13.10;99.90
7296;DHT22;40758;54.038;11.684;2022-10-16T05:11:13;13.00;99.90
7296;DHT22;40758;54.038;11.684;2022-10-16T05:13:44;12.90;99.90
7296;DHT22;40758;54.038;11.684;2022-10-16T05:16:18;12.90;99.90
7296;DHT22;40758;54.038;11.684;2022-10-16T05:18:47;12.90;99.90
7296;DHT22;40758;54.038;11.684;2022-10-16T05:21:23;12.90;99.90
7296;DHT22;40758;54.038;11.684;2022-10-16T05:23:53;13.00;99.90
7296;DHT22;40758;54.038;11.684;2022-10-16T05:26:23;13.00;99.90
7296;DHT22;40758;54.038;11.684;2022-10-16T05:28:52;13.00;99.90
7296;DHT22;40758;54.038;11.684;2022-10-16T05:31:22;13.10;99.90
7296;DHT22;40758;54.038;11.684;2022-10-16T05:33:51;13.10;99.90
7296;DHT22;40758;54.038;11.684;2022-10-16T05:36:21;13.10;99.90
7296;DHT22;40758;54.038;11.684;2022-10-16T05:38:52;13.10;99.90
7296;DHT22;40758;54.038;11.684;2022-10-16T05:41:24;13.10;99.90
7296;DHT22;40758;54.038;11.684;2022-10-16T05:43:54;13.10;99.90
7296;DHT22;40758;54.038;11.684;2022-10-16T05:46:23;13.10;99.90
7296;DHT22;40758;54.038;11.684;2022-10-16T05:48:55;13.10;99.90
7296;DHT22;40758;54.038;11.684;2022-10-16T05:51:26;13.10;99.90
7296;DHT22;40758;54.038;11.684;2022-10-16T05:53:57;13.20;99.90
7296;DHT22;40758;54.038;11.684;2022-10-16T05:56:26;13.20;99.90
7296;DHT22;40758;54.038;11.684;2022-10-16T05:58:55;13.10;99.90
7296;DHT22;40758;54.038;11.684;2022-10-16T06:01:24;13.00;99.90
7296;DHT22;40758;54.038;11.684;2022-10-16T06:03:57;13.00;99.90
7296;DHT22;40758;54.038;11.684;2022-10-16T06:06:28;13.00;99.90
7296;DHT22;40758;54.038;11.684;2022-10-16T06:08:58;13.00;99.90
7296;DHT22;40758;54.038;11.684;2022-10-16T06:11:29;13.00;99.90
7296;DHT22;40758;54.038;11.684;2022-10-16T06:14:00;13.00;99.90
7296;DHT22;40758;54.038;11.684;2022-10-16T06:16:35;12.90;99.90
7296;DHT22;40758;54.038;11.684;2022-10-16T06:19:04;13.00;99.90
7296;DHT22;40758;54.038;11.684;2022-10-16T06:21:36;13.10;99.90
7296;DHT22;40758;54.038;11.684;2022-10-16T06:24:05;13.10;99.90
7296;DHT22;40758;54.038;11.684;2022-10-16T06:26:35;13.20;99.90
7296;DHT22;40758;54.038;11.684;2022-10-16T06:29:05;13.20;99.90
7296;DHT22;40758;54.038;11.684;2022-10-16T06:31:34;13.30;99.90
7296;DHT22;40758;54.038;11.684;2022-10-16T06:34:04;13.30;99.90
7296;DHT22;40758;54.038;11.684;2022-10-16T06:36:39;13.30;99.90
7296;DHT22;40758;54.038;11.684;2022-10-16T06:39:11;13.30;99.90
7296;DHT22;40758;54.038;11.684;2022-10-16T06:41:41;13.40;99.90
7296;DHT22;40758;54.038;11.684;2022-10-16T06:44:13;13.40;99.90
7296;DHT22;40758;54.038;11.684;2022-10-16T06:46:42;13.60;99.90
7296;DHT22;40758;54.038;11.684;2022-10-16T06:49:11;13.70;99.90
7296;DHT22;40758;54.038;11.684;2022-10-16T06:51:44;13.80;99.90
7296;DHT22;40758;54.038;11.684;2022-10-16T06:54:15;13.80;99.90
7296;DHT22;40758;54.038;11.684;2022-10-16T06:56:45;14.00;99.90
7296;DHT22;40758;54.038;11.684;2022-10-16T06:59:13;14.00;99.90
7296;DHT22;40758;54.038;11.684;2022-10-16T07:01:43;14.10;99.90
7296;DHT22;40758;54.038;11.684;2022-10-16T07:04:13;14.20;99.90
7296;DHT22;40758;54.038;11.684;2022-10-16T07:06:42;14.20;99.90
7296;DHT22;40758;54.038;11.684;2022-10-16T07:09:13;14.40;99.90
7296;DHT22;40758;54.038;11.684;2022-10-16T07:11:43;14.50;99.90
7296;DHT22;40758;54.038;11.684;2022-10-16T07:14:15;14.70;99.90
7296;DHT22;40758;54.038;11.684;2022-10-16T07:16:46;14.80;99.90
7296;DHT22;40758;54.038;11.684;2022-10-16T07:19:19;15.10;99.90
7296;DHT22;40758;54.038;11.684;2022-10-16T07:21:50;15.20;99.90
7296;DHT22;40758;54.038;11.684;2022-10-16T07:24:19;15.40;99.90
7296;DHT22;40758;54.038;11.684;2022-10-16T07:26:52;15.50;99.90
7296;DHT22;40758;54.038;11.684;2022-10-16T07:29:26;15.80;99.90
7296;DHT22;40758;54.038;11.684;2022-10-16T07:31:58;16.70;99.90
7296;DHT22;40758;54.038;11.684;2022-10-16T07:34:28;17.50;99.90
7296;DHT22;40758;54.038;11.684;2022-10-16T07:36:59;18.30;99.90
7296;DHT22;40758;54.038;11.684;2022-10-16T07:39:31;19.00;99.90
7296;DHT22;40758;54.038;11.684;2022-10-16T07:42:03;18.90;99.90
7296;DHT22;40758;54.038;11.684;2022-10-16T07:44:32;18.80;99.90
7296;DHT22;40758;54.038;11.684;2022-10-16T07:47:01;19.40;99.90
7296;DHT22;40758;54.038;11.684;2022-10-16T07:49:31;19.60;99.90
7296;DHT22;40758;54.038;11.684;2022-10-16T07:52:02;20.10;99.90
7296;DHT22;40758;54.038;11.684;2022-10-16T07:54:32;19.60;99.90
7296;DHT22;40758;54.038;11.684;2022-10-16T07:57:01;19.60;99.90
7296;DHT22;40758;54.038;11.684;2022-10-16T07:59:38;19.20;99.90
7296;DHT22;40758;54.038;11.684;2022-10-16T08:02:08;18.60;99.90
7296;DHT22;40758;54.038;11.684;2022-10-16T08:04:38;17.80;99.90
7296;DHT22;40758;54.038;11.684;2022-10-16T08:07:09;17.50;99.90
7296;DHT22;40758;54.038;11.684;2022-10-16T08:09:39;17.20;99.90
7296;DHT22;40758;54.038;11.684;2022-10-16T08:12:08;17.10;99.90
7296;DHT22;40758;54.038;11.684;2022-10-16T08:14:38;17.10;99.90
7296;DHT22;40758;54.038;11.684;2022-10-16T08:17:14;17.00;99.90
7296;DHT22;40758;54.038;11.684;2022-10-16T08:19:46;16.90;99.90
7296;DHT22;40758;54.038;11.684;2022-10-16T08:22:18;16.70;99.90
7296;DHT22;40758;54.038;11.684;2022-10-16T08:24:54;16.70;99.90
7296;DHT22;40758;54.038;11.684;2022-10-16T08:27:23;16.70;99.90
7296;DHT22;40758;54.038;11.684;2022-10-16T08:29:54;16.80;99.90
7296;DHT22;40758;54.038;11.684;2022-10-16T08:32:24;16.80;99.90
7296;DHT22;40758;54.038;11.684;2022-10-16T08:34:53;16.70;99.90
7296;DHT22;40758;54.038;11.684;2022-10-16T08:37:29;16.50;99.90
7296;DHT22;40758;54.038;11.684;2022-10-16T08:40:01;16.40;99.90
7296;DHT22;40758;54.038;11.684;2022-10-16T08:42:46;16.30;99.90
7296;DHT22;40758;54.038;11.684;2022-10-16T08:45:44;16.30;99.90
7296;DHT22;40758;54.038;11.684;2022-10-16T08:48:27;16.30;99.90
7296;DHT22;40758;54.038;11.684;2022-10-16T08:51:04;16.40;99.90
7296;DHT22;40758;54.038;11.684;2022-10-16T08:53:42;16.40;99.90
7296;DHT22;40758;54.038;11.684;2022-10-16T08:56:19;16.30;99.90
7296;DHT22;40758;54.038;11.684;2022-10-16T08:58:50;16.20;99.90
7296;DHT22;40758;54.038;11.684;2022-10-16T09:01:37;16.20;99.90
7296;DHT22;40758;54.038;11.684;2022-10-16T09:07:32;16.70;99.90
7296;DHT22;40758;54.038;11.684;2022-10-16T09:10:23;17.00;99.90
7296;DHT22;40758;54.038;11.684;2022-10-16T09:13:08;17.20;99.90
7296;DHT22;40758;54.038;11.684;2022-10-16T09:15:53;17.50;99.90
7296;DHT22;40758;54.038;11.684;2022-10-16T09:18:37;17.70;99.90
7296;DHT22;40758;54.038;11.684;2022-10-16T09:21:21;17.90;99.90
7296;DHT22;40758;54.038;11.684;2022-10-16T09:23:59;18.80;99.90
7296;DHT22;40758;54.038;11.684;2022-10-16T09:26:41;19.60;99.90
7296;DHT22;40758;54.038;11.684;2022-10-16T09:29:11;20.70;99.90
7296;DHT22;40758;54.038;11.684;2022-10-16T09:31:45;20.90;99.90
7296;DHT22;40758;54.038;11.684;2022-10-16T09:34:27;20.90;99.90
7296;DHT22;40758;54.038;11.684;2022-10-16T09:37:10;21.40;99.90
7296;DHT22;40758;54.038;11.684;2022-10-16T09:39:48;21.20;99.90
7296;DHT22;40758;54.038;11.684;2022-10-16T09:42:25;21.50;99.90
7296;DHT22;40758;54.038;11.684;2022-10-16T09:45:01;21.40;99.90
7296;DHT22;40758;54.038;11.684;2022-10-16T09:47:37;21.20;99.90
7296;DHT22;40758;54.038;11.684;2022-10-16T09:50:22;21.50;99.90
7296;DHT22;40758;54.038;11.684;2022-10-16T09:53:04;21.50;99.90
7296;DHT22;40758;54.038;11.684;2022-10-16T09:55:34;21.60;99.90
7296;DHT22;40758;54.038;11.684;2022-10-16T09:58:21;21.20;99.90
7296;DHT22;40758;54.038;11.684;2022-10-16T10:00:53;21.10;99.90
7296;DHT22;40758;54.038;11.684;2022-10-16T10:03:34;21.00;99.90
7296;DHT22;40758;54.038;11.684;2022-10-16T10:06:21;21.40;99.90
7296;DHT22;40758;54.038;11.684;2022-10-16T10:09:04;21.40;99.90
7296;DHT22;40758;54.038;11.684;2022-10-16T10:11:56;20.80;99.90
7296;DHT22;40758;54.038;11.684;2022-10-16T10:14:31;20.20;99.90
7296;DHT22;40758;54.038;11.684;2022-10-16T10:17:18;20.30;99.90
7296;DHT22;40758;54.038;11.684;2022-10-16T10:19:52;20.70;99.90
7296;DHT22;40758;54.038;11.684;2022-10-16T10:22:26;20.60;99.90
7296;DHT22;40758;54.038;11.684;2022-10-16T10:25:21;21.00;99.90
7296;DHT22;40758;54.038;11.684;2022-10-16T10:28:26;21.30;99.90
7296;DHT22;40758;54.038;11.684;2022-10-16T10:31:17;21.40;99.90
7296;DHT22;40758;54.038;11.684;2022-10-16T10:33:57;21.70;99.90
7296;DHT22;40758;54.038;11.684;2022-10-16T10:36:38;21.60;99.90
7296;DHT22;40758;54.038;11.684;2022-10-16T10:39:12;21.60;99.90
7296;DHT22;40758;54.038;11.684;2022-10-16T10:42:12;21.40;99.90
7296;DHT22;40758;54.038;11.684;2022-10-16T10:45:11;21.40;99.90
7296;DHT22;40758;54.038;11.684;2022-10-16T10:48:10;21.30;99.90
7296;DHT22;40758;54.038;11.684;2022-10-16T10:50:53;22.00;99.90
7296;DHT22;40758;54.038;11.684;2022-10-16T10:53:39;21.90;99.90
7296;DHT22;40758;54.038;11.684;2022-10-16T10:56:25;21.80;99.90
7296;DHT22;40758;54.038;11.684;2022-10-16T10:59:32;21.60;99.90
7296;DHT22;40758;54.038;11.684;2022-10-16T11:02:26;21.50;99.90
7296;DHT22;40758;54.038;11.684;2022-10-16T11:05:29;21.50;99.90
7296;DHT22;40758;54.038;11.684;2022-10-16T11:08:12;21.50;99.90
7296;DHT22;40758;54.038;11.684;2022-10-16T11:10:50;21.10;99.90
7296;DHT22;40758;54.038;11.684;2022-10-16T11:13:31;21.20;99.90
7296;DHT22;40758;54.038;11.684;2022-10-16T11:16:13;21.70;99.90
7296;DHT22;40758;54.038;11.684;2022-10-16T11:18:51;21.70;99.90
7296;DHT22;40758;54.038;11.684;2022-10-16T11:21:33;21.40;99.90
7296;DHT22;40758;54.038;11.684;2022-10-16T11:24:16;21.30;99.90
7296;DHT22;40758;54.038;11.684;2022-10-16T11:26:54;21.00;99.90
7296;DHT22;40758;54.038;11.684;2022-10-16T11:29:28;21.50;99.90
7296;DHT22;40758;54.038;11.684;2022-10-16T11:32:16;21.30;99.90
7296;DHT22;40758;54.038;11.684;2022-10-16T11:35:11;21.50;99.90
7296;DHT22;40758;54.038;11.684;2022-10-16T11:37:55;21.00;99.90
7296;DHT22;40758;54.038;11.684;2022-10-16T11:40:30;20.60;99.90
7296;DHT22;40758;54.038;11.684;2022-10-16T11:43:06;20.30;99.90
7296;DHT22;40758;54.038;11.684;2022-10-16T11:45:44;19.90;99.90
7296;DHT22;40758;54.038;11.684;2022-10-16T11:48:25;20.00;99.90
7296;DHT22;40758;54.038;11.684;2022-10-16T11:51:06;20.30;99.90
7296;DHT22;40758;54.038;11.684;2022-10-16T11:53:53;20.50;99.90
7296;DHT22;40758;54.038;11.684;2022-10-16T11:56:31;20.40;99.90
7296;DHT22;40758;54.038;11.684;2022-10-16T11:59:07;20.40;99.90
7296;DHT22;40758;54.038;11.684;2022-10-16T12:01:47;20.40;99.90
7296;DHT22;40758;54.038;11.684;2022-10-16T12:04:29;20.70;99.90
7296;DHT22;40758;54.038;11.684;2022-10-16T12:07:08;20.90;99.90
7296;DHT22;40758;54.038;11.684;2022-10-16T12:09:43;21.10;99.90
7296;DHT22;40758;54.038;11.684;2022-10-16T12:12:25;21.40;99.90
7296;DHT22;40758;54.038;11.684;2022-10-16T12:15:17;21.60;99.90
7296;DHT22;40758;54.038;11.684;2022-10-16T12:18:21;21.60;99.90
7296;DHT22;40758;54.038;11.684;2022-10-16T12:20:55;21.30;99.90
7296;DHT22;40758;54.038;11.684;2022-10-16T12:23:36;21.30;99.90
7296;DHT22;40758;54.038;11.684;2022-10-16T12:26:10;21.50;99.90
7296;DHT22;40758;54.038;11.684;2022-10-16T12:28:46;21.70;99.90
7296;DHT22;40758;54.038;11.684;2022-10-16T12:31:18;21.90;99.90
7296;DHT22;40758;54.038;11.684;2022-10-16T12:33:58;21.20;99.90
7296;DHT22;40758;54.038;11.684;2022-10-16T12:36:34;20.50;99.90
7296;DHT22;40758;54.038;11.684;2022-10-16T12:39:04;20.30;99.90
7296;DHT22;40758;54.038;11.684;2022-10-16T12:41:36;20.20;99.90
7296;DHT22;40758;54.038;11.684;2022-10-16T12:44:22;20.20;99.90
7296;DHT22;40758;54.038;11.684;2022-10-16T12:46:55;20.30;99.90
7296;DHT22;40758;54.038;11.684;2022-10-16T12:49:32;19.90;99.90
7296;DHT22;40758;54.038;11.684;2022-10-16T12:54:57;19.50;99.90
7296;DHT22;40758;54.038;11.684;2022-10-16T12:57:39;19.40;99.90
7296;DHT22;40758;54.038;11.684;2022-10-16T13:00:25;19.40;99.90
7296;DHT22;40758;54.038;11.684;2022-10-16T13:03:23;19.60;99.90
7296;DHT22;40758;54.038;11.684;2022-10-16T13:06:27;20.00;99.90
7296;DHT22;40758;54.038;11.684;2022-10-16T13:09:17;20.70;99.90
7296;DHT22;40758;54.038;11.684;2022-10-16T13:12:31;21.30;99.90
7296;DHT22;40758;54.038;11.684;2022-10-16T13:15:40;21.20;99.90
7296;DHT22;40758;54.038;11.684;2022-10-16T13:18:25;20.50;99.90
7296;DHT22;40758;54.038;11.684;2022-10-16T13:21:19;20.00;99.90
7296;DHT22;40758;54.038;11.684;2022-10-16T13:24:14;19.60;99.90
7296;DHT22;40758;54.038;11.684;2022-10-16T13:26:56;19.90;99.90
7296;DHT22;40758;54.038;11.684;2022-10-16T13:29:39;20.40;99.90
7296;DHT22;40758;54.038;11.684;2022-10-16T13:32:14;20.20;99.90
7296;DHT22;40758;54.038;11.684;2022-10-16T13:34:46;19.90;99.90
7296;DHT22;40758;54.038;11.684;2022-10-16T13:37:19;19.50;99.90
7296;DHT22;40758;54.038;11.684;2022-10-16T13:39:49;19.20;99.90
7296;DHT22;40758;54.038;11.684;2022-10-16T13:42:25;19.30;99.90
7296;DHT22;40758;54.038;11.684;2022-10-16T13:45:00;19.50;99.90
7296;DHT22;40758;54.038;11.684;2022-10-16T13:47:29;19.40;99.90
7296;DHT22;40758;54.038;11.684;2022-10-16T13:50:02;19.30;99.90
7296;DHT22;40758;54.038;11.684;2022-10-16T13:52:34;19.50;99.90
7296;DHT22;40758;54.038;11.684;2022-10-16T13:55:09;19.90;99.90
7296;DHT22;40758;54.038;11.684;2022-10-16T13:57:40;20.10;99.90
7296;DHT22;40758;54.038;11.684;2022-10-16T14:00:23;20.30;99.90
7296;DHT22;40758;54.038;11.684;2022-10-16T14:03:02;20.30;99.90
7296;DHT22;40758;54.038;11.684;2022-10-16T14:05:34;20.30;99.90
7296;DHT22;40758;54.038;11.684;2022-10-16T14:08:11;20.40;99.90
7296;DHT22;40758;54.038;11.684;2022-10-16T14:10:41;20.60;99.90
7296;DHT22;40758;54.038;11.684;2022-10-16T14:13:16;20.70;99.90
7296;DHT22;40758;54.038;11.684;2022-10-16T14:15:51;20.60;99.90
7296;DHT22;40758;54.038;11.684;2022-10-16T14:18:25;20.20;99.90
7296;DHT22;40758;54.038;11.684;2022-10-16T14:21:06;19.80;99.90
7296;DHT22;40758;54.038;11.684;2022-10-16T14:23:44;19.80;99.90
7296;DHT22;40758;54.038;11.684;2022-10-16T14:26:16;20.10;99.90
7296;DHT22;40758;54.038;11.684;2022-10-16T14:28:48;20.50;99.90
7296;DHT22;40758;54.038;11.684;2022-10-16T14:31:34;20.60;99.90
7296;DHT22;40758;54.038;11.684;2022-10-16T14:34:04;20.50;99.90
7296;DHT22;40758;54.038;11.684;2022-10-16T14:36:49;20.40;99.90
7296;DHT22;40758;54.038;11.684;2022-10-16T14:39:20;20.10;99.90
7296;DHT22;40758;54.038;11.684;2022-10-16T14:41:51;19.80;99.90
7296;DHT22;40758;54.038;11.684;2022-10-16T14:44:31;19.60;99.90
7296;DHT22;40758;54.038;11.684;2022-10-16T14:47:13;19.50;99.90
7296;DHT22;40758;54.038;11.684;2022-10-16T14:49:49;19.30;99.90
7296;DHT22;40758;54.038;11.684;2022-10-16T14:52:22;19.10;99.90
7296;DHT22;40758;54.038;11.684;2022-10-16T14:54:52;19.00;99.90
7296;DHT22;40758;54.038;11.684;2022-10-16T14:57:26;18.90;99.90
7296;DHT22;40758;54.038;11.684;2022-10-16T14:59:59;19.00;99.90
7296;DHT22;40758;54.038;11.684;2022-10-16T15:02:32;18.80;99.90
7296;DHT22;40758;54.038;11.684;2022-10-16T15:05:10;18.70;99.90
7296;DHT22;40758;54.038;11.684;2022-10-16T15:07:48;18.50;99.90
7296;DHT22;40758;54.038;11.684;2022-10-16T15:10:24;18.30;99.90
7296;DHT22;40758;54.038;11.684;2022-10-16T15:12:56;18.10;99.90
7296;DHT22;40758;54.038;11.684;2022-10-16T15:15:32;17.90;99.90
7296;DHT22;40758;54.038;11.684;2022-10-16T15:18:14;17.90;99.90
7296;DHT22;40758;54.038;11.684;2022-10-16T15:20:51;17.80;99.90
7296;DHT22;40758;54.038;11.684;2022-10-16T15:23:24;17.70;99.90
7296;DHT22;40758;54.038;11.684;2022-10-16T15:25:55;18.20;99.90
7296;DHT22;40758;54.038;11.684;2022-10-16T15:28:25;18.30;99.90
7296;DHT22;40758;54.038;11.684;2022-10-16T15:30:56;18.00;99.90
7296;DHT22;40758;54.038;11.684;2022-10-16T15:33:29;17.90;99.90
7296;DHT22;40758;54.038;11.684;2022-10-16T15:36:06;18.00;99.90
7296;DHT22;40758;54.038;11.684;2022-10-16T15:38:41;18.20;99.90
7296;DHT22;40758;54.038;11.684;2022-10-16T15:41:11;18.60;99.90
7296;DHT22;40758;54.038;11.684;2022-10-16T15:43:39;18.70;99.90
7296;DHT22;40758;54.038;11.684;2022-10-16T15:46:12;18.70;99.90
7296;DHT22;40758;54.038;11.684;2022-10-16T15:48:48;18.20;99.90
7296;DHT22;40758;54.038;11.684;2022-10-16T15:51:18;17.60;99.90
7296;DHT22;40758;54.038;11.684;2022-10-16T15:53:55;17.10;99.90
7296;DHT22;40758;54.038;11.684;2022-10-16T15:56:30;16.80;99.90
7296;DHT22;40758;54.038;11.684;2022-10-16T15:59:00;16.50;99.90
7296;DHT22;40758;54.038;11.684;2022-10-16T16:01:32;16.30;99.90
7296;DHT22;40758;54.038;11.684;2022-10-16T16:04:04;16.20;99.90
7296;DHT22;40758;54.038;11.684;2022-10-16T16:06:46;16.10;99.90
7296;DHT22;40758;54.038;11.684;2022-10-16T16:09:16;15.90;99.90
7296;DHT22;40758;54.038;11.684;2022-10-16T16:11:46;15.80;99.90
7296;DHT22;40758;54.038;11.684;2022-10-16T16:14:21;15.60;99.90
7296;DHT22;40758;54.038;11.684;2022-10-16T16:16:53;15.50;99.90
7296;DHT22;40758;54.038;11.684;2022-10-16T16:19:24;15.50;99.90
7296;DHT22;40758;54.038;11.684;2022-10-16T16:21:53;15.40;99.90
7296;DHT22;40758;54.038;11.684;2022-10-16T16:24:22;15.30;99.90
7296;DHT22;40758;54.038;11.684;2022-10-16T16:26:52;15.10;99.90
7296;DHT22;40758;54.038;11.684;2022-10-16T16:29:23;15.00;99.90